Weather observations for the past three days for
Keesler Air Force Base / Biloxi
Metric (Imperial)
Date Time (cdt) Wind (kph) Vis. (km) Weather Sky Cond. Temperature (ºC) Relative Humidity Wind Chill (°C) Heat Index (°C) Pressure Precipitation (cm)
Air Dwpt 6 hour altimeter (cm) sea level (mb) 1 hr 3 hr 6 hr
Max. Min.
31 14:55 NE 26 16.09 Mostly Cloudy FEW014 BKN022 BKN030 BKN041 28.8 24.3 77% 34 76.23 1016.5 0.1
31 13:55 E 11 16.09 A Few Clouds FEW140 FEW180 30.4 23.5 67% 35 76.25 1016.8 0.03
31 12:55 E 24 16.09 Light Rain FEW021 SCT080 28 24 32.1 26.1 79% 32 76.28 1017.2 0.05 0.05
31 11:55 SE 15 16.09 Mostly Cloudy SCT028 BKN036 BKN044 32 23.5 61% 37 76.28 1017.2
31 10:55 E 15 16.09 Partly Cloudy SCT024 SCT037 31.2 23.8 65% 37 76.33 1017.9
31 09:55 E 19 16.09 Fair CLR 30.7 23.8 67% 36 76.28 1017.2
31 08:55 E 19 16.09 Fair CLR 29 23.9 74% 33 76.28 1017.2
31 07:55 E 15 16.09 Fair CLR 27.1 23.9 83% 30 76.25 1016.8
31 06:55 E 11 16.09 Fair CLR 26.2 23.4 26.9 26 85% 28 76.17 1015.8
31 05:55 E 13 16.09 Fair CLR 26.1 23.5 86% 28 76.15 1015.5
31 04:55 E 11 16.09 Fair CLR 26.2 23.6 86% 28 76.12 1015.2
31 03:55 E 9 16.09 A Few Clouds FEW024 26.2 23.6 86% 28 76.12 1015.2
31 02:55 E 9 16.09 Fair CLR 26.6 23.8 85% 29 76.1 1014.8
31 01:55 E 9 16.09 Fair CLR 26.5 23.5 84% 29 76.12 1015.2
31 00:55 E 9 16.09 Fair CLR 26.8 23.6 29.7 26.7 83% 30 76.17 1015.8
30 23:55 E 9 16.09 Fair CLR 27.3 23.5 80% 30 76.2 1016.2
30 22:55 E 9 16.09 Fair CLR 27.5 23.5 79% 31 76.2 1016.2
30 21:55 NE 6 16.09 Fair CLR 27.3 23.3 79% 30 76.2 1016.2
30 20:55 E 11 16.09 Fair CLR 28.7 23.1 72% 32 76.17 1015.8
30 19:55 E 13 16.09 Fair CLR 29 23.2 71% 33 76.12 1015.2
30 18:55 E 15 16.09 Fair CLR 29.8 23 31.7 29.8 67% 34 76.1 1014.8
30 17:55 SE 20 16.09 Fair CLR 31.1 23.2 63% 36 76.1 1014.8
30 16:55 SE 22 16.09 Fair CLR 31.2 22.7 61% 35 76.12 1015.2
30 15:55 SE 19 16.09 Fair CLR 30.6 23.2 65% 35 76.12 1015.2
30 14:55 SE 26 16.09 Fair CLR 30.7 22.3 61% 34 76.2 1016.2
30 13:55 SE 24 16.09 Fair CLR 31.5 23 61% 36 76.23 1016.5
30 12:55 SE 22 16.09 Partly Cloudy SCT024 SCT030 30.2 23.8 32.2 25.5 69% 35 76.28 1017.2 0.15 0.2
30 11:55 SE 9 16.09 Light Rain FEW014 SCT026 27.3 23.3 79% 30 76.33 1017.9 0.05
30 10:55 E 15 16.09 Fair CLR 31.4 23.5 63% 37 76.33 1017.9
30 09:55 E 17 16.09 A Few Clouds FEW044 FEW055 30.7 23.8 67% 36 76.3 1017.5
30 08:55 E 17 16.09 Fair CLR 28.8 23.7 74% 33 76.28 1017.2
30 07:55 NE 13 16.09 Fair CLR 27 23.6 82% 30 76.25 1016.8
30 06:55 NE 13 16.09 Fair CLR 25.5 23.1 27 25.2 87% 27 76.23 1016.5
30 05:55 NE 13 16.09 Fair CLR 25.4 23 87% 27 76.17 1015.8
30 04:55 NE 13 16.09 Fair CLR 25.4 23 87% 27 76.12 1015.2
30 03:55 NE 11 16.09 Fair CLR 25.7 23.1 86% 27 76.12 1015.2
30 02:55 NE 9 16.09 A Few Clouds FEW023 25.9 23.1 85% 28 76.15 1015.5
30 01:55 NE 11 16.09 Fair CLR 26.2 23.4 85% 28 76.17 1015.8
30 00:55 E 9 16.09 A Few Clouds FEW023 FEW031 26.9 23.5 29.4 26.6 82% 30 76.23 1016.5
29 23:55 E 11 16.09 Partly Cloudy SCT024 SCT060 27.2 23.6 81% 30 76.25 1016.8
29 22:55 E 9 16.09 Fair CLR 27.6 23.8 80% 31 76.28 1017.2
29 21:55 E 13 16.09 Fair CLR 28 23.5 77% 32 76.25 1016.8
29 20:55 SE 9 16.09 Fair CLR 28.4 22.8 72% 32 76.17 1015.8
29 19:55 SE 13 16.09 Fair CLR 29 23.4 72% 33 76.12 1015.2
29 18:55 SE 15 16.09 A Few Clouds FEW025 29.3 24.1 33.6 29.3 74% 34 76.1 1014.8 0.03
29 17:55 E 13 16.09 Fair CLR 30.8 23.2 64% 35 76.1 1014.8
29 16:55 SE 20 16.09 A Few Clouds FEW043 30.9 24 67% 36 76.1 1014.8 0.03
29 15:55 SE 20 16.09 Light Rain FEW034 32 24.3 64% 38 76.15 1015.5
29 14:55 SE 20 16.09 Fair CLR 31.9 23.9 63% 38 76.15 1015.5
29 13:55 S 17 16.09 Partly Cloudy SCT042 32.3 23.8 61% 38 76.2 1016.2
29 12:55 NE 7 16.09 Mostly Cloudy BKN038 31.8 22.2 32.7 24.8 57% 36 76.23 1016.5
29 11:55 NE 9 16.09 A Few Clouds FEW200 32.4 21.9 54% 36 76.25 1016.8
29 10:55 E 15 16.09 Fair CLR 31.3 23.1 62% 36 76.28 1017.2
29 09:55 NE 9 16.09 Fair CLR 29.4 23.5 71% 34 76.25 1016.8
29 08:55 NE 11 16.09 Fair CLR 27.8 23.6 78% 31 76.25 1016.8
29 07:55 Calm 16.09 Fair CLR 25.8 23.1 85% 27 76.25 1016.8
29 06:55 Calm 16.09 Fair CLR 24.7 22.5 26.2 24.6 88% 25 76.2 1016.2
29 05:55 N 7 16.09 Fair CLR 24.9 22.6 87% 26 76.17 1015.8
29 04:55 N 6 16.09 Fair CLR 25.2 22.7 86% 26 76.15 1015.5
29 03:55 N 6 16.09 Fair CLR 25.3 22.8 86% 26 76.15 1015.5
29 02:55 Calm 16.09 Fair CLR 25.5 23 86% 27 76.15 1015.5
29 01:55 Calm 16.09 Fair CLR 25.9 23.3 86% 28 76.15 1015.5
29 00:55 Calm 16.09 Fair CLR 26.2 23.4 27.6 25.9 85% 28 76.17 1015.8
28 23:55 NE 6 16.09 Fair CLR 26.4 24 87% 29 76.2 1016.2
28 22:55 Calm 16.09 Fair CLR 26.7 23.5 83% 29 76.15 1015.5
28 21:55 Calm 16.09 Fair CLR 26.4 23.6 85% 29 76.15 1015.5
28 20:55 Calm 16.09 Fair CLR 26.7 23.5 83% 29 76.1 1014.8
28 19:55 Calm 16.09 Fair CLR 27.4 23.6 80% 31 76.05 1014.1
28 18:55 E 7 16.09 A Few Clouds FEW040 27.7 23.5 33.7 27.2 78% 31 76.05 1014.1 0.61
28 17:55 S 13 16.09 A Few Clouds FEW075 27.9 24.3 81% 32 76.05 1014.1 0.61
28 16:55 S 20 16.09 Light Rain BKN050 31.7 23.5 62% 37 76.05 1014.1
Date Time (cdt) Wind (kph) Vis. (km) Weather Sky Cond. Air Dwpt Max. Min. Relative Humidity Wind Chill (°C) Heat Index (°C) altimeter (cm) sea level (mb) 1 hr 3 hr 6 hr
6 hour
Temperature (ºC) Pressure Precipitation (cm)